HP: University of Magic Arts

Объявление

Добро пожаловать в магический Лондон!
В игре: 2025 год, сентябрь. В УМИ начинается юбилейный учебный год.

Рейтинг Ролевых Ресурсов - RPG TOP Рейтинг форумов Forum-top.ru Palantir

Информация о пользователе

Привет, Гость! Войдите или зарегистрируйтесь.


Вы здесь » HP: University of Magic Arts » Прошлое и будущее


Прошлое и будущее

Тем 1 страница 30 из 59

Тема Ответов Просмотров Последнее сообщение
1 Важно: Закрыта Шаблон эпизода  Magic
0 151 2017-12-05 13:15:50  Magic
13 226 Сегодня 12:11:38  Rosaline Hogarth
9 82 Вчера 16:48:13  Fred Weasley
6 105 2018-09-19 12:25:08  James Potter
5 A big little mermaid  Luna Scamander
2 32 2018-09-18 21:49:23  Luna Scamander
6 Лунный свет  Harry Potter
10 141 2018-09-17 17:24:37  Harry Potter
4 59 2018-09-17 17:04:02  Harry Potter
11 179 2018-09-17 01:10:33  Farran Moran
2 34 2018-09-16 22:28:48  James Potter
11 171 2018-09-15 16:24:57  Theobald Travers
7 120 2018-09-15 10:42:50  Rosaline Hogarth
28 325 2018-09-15 02:00:59  Jennifer Williams
9 161 2018-09-15 00:24:41  Farran Moran
18 210 2018-09-14 22:16:53  Victoire Weasley
2 33 2018-09-14 14:35:13  Scorpius Malfoy
7 85 2018-09-09 01:32:12  Blaise Zabini
15 229 2018-09-03 21:23:58  Luna Scamander
18 More than partner  Teddy Lupin
1 34 2018-08-27 19:37:21  Ashley Fawcett
5 94 2018-08-25 14:50:29  Teddy Lupin
20 Under the mistletoe  Julian Ford
12 132 2018-08-25 01:41:27  Jemma Sztorn
21 Chaque chose en son temps  Albert Flint
5 130 2018-08-24 22:34:26  Vivien Lafor
22 10 галлеонов  Ruby Morrison
2 56 2018-08-23 22:56:38  Ruby Morrison
1 56 2018-08-22 17:19:48  Neville Longbottom
8 153 2018-08-21 01:03:34  Farran Moran
7 261 2018-08-20 20:21:19  Victoire Weasley
26 Разбор полета  Teddy Lupin
8 139 2018-08-20 17:23:47  Harry Potter
27 It's not over yet  Harry Potter
5 156 2018-08-20 15:12:17  Harry Potter
28 Five o'clock tea  Scorpius Malfoy
9 209 2018-08-20 12:39:37  Scorpius Malfoy
29 Eruditio aspera optima est  Blaise Zabini
2 63 2018-08-19 01:56:19  Blaise Zabini
30 Who the hell are you?  Roxanne Weasley
6 66 2018-08-07 21:42:02  Roxanne Weasley

Вы здесь » HP: University of Magic Arts » Прошлое и будущее